Thunder radar more information blitzortung!


Radar de pluja more information rain snow radar


Visita la nostra xarxa de llocs de meteo:

Template documentation
and downloads

And another site



No particular awareness of the weather is required.    There are no Weather-warnings

Pagina Historial Weather Underground text

Diari Resum Juny 23, 2016 Unitats:  Mètric    Imperial   Tant
« Previous Dia
SegĂźent Dia »
Diari Setmana Mensual Anual Personalitzada
  Maxima: Minima: Media:
Temperatura: -17.8 °C -9.1 °C -3.1 °C
Punt de rosada: -17.8 °C -16.1 °C -13.7 °C
Humitat: Humidity % 23 % 30 %
Wind Speed: 0 km/h 0 km/h 17.5 km/h
RĂ fegues de vent: 0 km/h - -
Vent:- - SSW
Pression baro: 0 hPa 34428.8 hPa -
Precipitacions: 0 mm    
Historical Graphs
 
 
Dades de taula per Juny 23, 2016
Temps Temperatura Punt de rosada Pression baro Vent Wind Speed RĂ fegues de vent Humitat Rainfall Rate (Hourly)
-17.8 °C -17.8 °C 0 hPa Calm     Humidity % 0 mm
00:00 -5.9 °C -16.1 °C 34533.8 hPa West 9 km/h 9 km/h 30 % 0 mm
00:05 -5.9 °C -16.1 °C 34533.8 hPa WSW 6 km/h 6 km/h 30 % 0 mm
00:15 -8.4 °C -14.3 °C 34533.8 hPa Calm     50 % 0 mm
00:25 -8.7 °C -14.5 °C 34533.8 hPa ESE 2.6 km/h 5.1 km/h 50 % 0 mm
00:35 -8.9 °C -14.6 °C 34533.8 hPa SW 2.6 km/h 5.1 km/h 51 % 0 mm
00:45 -8.9 °C -14.6 °C 34533.8 hPa SW 2.6 km/h 2.6 km/h 51 % 0 mm
00:55 -8.9 °C -14.6 °C 34533.8 hPa SW 2.6 km/h 5.1 km/h 51 % 0 mm
01:05 -9 °C -14.6 °C 34533.8 hPa Calm     51 % 0 mm
01:15 -9 °C -14.6 °C 34533.8 hPa SW 2.6 km/h   51 % 0 mm
01:25 -9 °C -14.6 °C 34533.8 hPa SW 2.6 km/h 2.6 km/h 51 % 0 mm
01:35 -9.1 °C -14.7 °C 34496.6 hPa Calm     51 % 0 mm
01:45 -9.1 °C -14.7 °C 34533.8 hPa Calm   2.6 km/h 51 % 0 mm
01:55 -8.8 °C -14.5 °C 34533.8 hPa Calm   2.6 km/h 51 % 0 mm
02:05 -8.6 °C -14.2 °C 34533.8 hPa NE 2.6 km/h 5.1 km/h 51 % 0 mm
02:15 -8.3 °C -14.2 °C 34533.8 hPa NE 5.1 km/h 5.1 km/h 50 % 0 mm
02:25 -8 °C -13.8 °C 34533.8 hPa NNE 2.6 km/h 5.1 km/h 50 % 0 mm
02:35 -7.7 °C -13.7 °C 34533.8 hPa NE 2.6 km/h 5.1 km/h 49 % 0 mm
02:45 -7.3 °C -13.4 °C 34533.8 hPa NE 2.6 km/h 5.1 km/h 49 % 0 mm
02:55 -7.2 °C -13.6 °C 34533.8 hPa NE 5.1 km/h 5.1 km/h 47 % 0 mm
03:05 -7.3 °C -13.4 °C 34533.8 hPa NE 2.6 km/h 5.1 km/h 49 % 0 mm
03:15 -7.3 °C -13.4 °C 34533.8 hPa SW 2.6 km/h 5.1 km/h 49 % 0 mm
03:25 -7.1 °C -13.5 °C 34533.8 hPa SW 5.1 km/h 5.1 km/h 47 % 0 mm
03:35 -6.6 °C -13.3 °C 34533.8 hPa SW 2.6 km/h 5.1 km/h 46 % 0 mm
03:45 -6.2 °C -12.9 °C 34533.8 hPa SSW 2.6 km/h 2.6 km/h 46 % 0 mm
04:05 -5.6 °C -12.7 °C 34533.8 hPa SE 2.6 km/h 5.1 km/h 44 % 0 mm
04:15 -5.6 °C -12.9 °C 34533.8 hPa SSW 2.6 km/h 7.7 km/h 43 % 0 mm
04:25 -5.1 °C -12.7 °C 34533.8 hPa SSW 2.6 km/h 5.1 km/h 42 % 0 mm
04:35 -4.6 °C -12.6 °C 34533.8 hPa South 5.1 km/h 5.1 km/h 40 % 0 mm
04:45 -4.1 °C -12.3 °C 34496.6 hPa Calm   10.3 km/h 39 % 0 mm
04:55 -3.8 °C -12.6 °C 34496.6 hPa ESE 2.6 km/h 7.7 km/h 37 % 0 mm
05:05 -3.7 °C -12.9 °C 34533.8 hPa SSE 7.7 km/h 10.3 km/h 35 % 0 mm
05:15 -3.4 °C -13.1 °C 34533.8 hPa SW 2.6 km/h 12.9 km/h 33 % 0 mm
05:25 -3.4 °C -13.7 °C 34533.8 hPa SW 15.6 km/h 15.6 km/h 31 % 0 mm
05:45 -2.7 °C -12.8 °C 34567.7 hPa SW 7.7 km/h 15.6 km/h 32 % 0 mm
05:55 -2.7 °C -12.8 °C 34567.7 hPa SW 7.7 km/h 25.9 km/h 32 % 0 mm
06:05 -2.6 °C -12.7 °C 34533.8 hPa SW 15.6 km/h 25.9 km/h 32 % 0 mm
06:15 -2.5 °C -12.6 °C 34533.8 hPa SW 15.6 km/h 25.9 km/h 32 % 0 mm
11:24 -2.4 °C -12.7 °C 34533.8 hPa SW 20.9 km/h 20.9 km/h 31 % 0 mm
11:29 -2.2 °C -12.9 °C 34533.8 hPa SW 23.8 km/h 23.8 km/h 30 % 0 mm
11:34 -2.1 °C -12.7 °C 34533.8 hPa SSW 15 km/h 15.3 km/h 30 % 0 mm
11:39 -2 °C -12.7 °C 34533.8 hPa SW 32.3 km/h 32.3 km/h 30 % 0 mm
11:44 -1.9 °C -12.7 °C 34533.8 hPa SSW 20.9 km/h 20.9 km/h 30 % 0 mm
11:49 -1.9 °C -12.9 °C 34533.8 hPa WSW 33.2 km/h 33.2 km/h 29 % 0 mm
11:54 -1.9 °C -12.9 °C 34533.8 hPa South 32.8 km/h 32.8 km/h 29 % 0 mm
11:59 -1.7 °C -12.4 °C 34533.8 hPa SSW 23.8 km/h 23.8 km/h 30 % 0 mm
12:09 -1.7 °C -12.7 °C 34533.8 hPa SW 22 km/h 22 km/h 29 % 0 mm
12:14 -1.5 °C -12.6 °C 34533.8 hPa SW 15.3 km/h 15.3 km/h 29 % 0 mm
12:19 -1.3 °C -12.4 °C 34533.8 hPa SSW 15 km/h 15 km/h 29 % 0 mm
12:24 -1.3 °C -12.3 °C 34533.8 hPa SW 6 km/h 8.5 km/h 29 % 0 mm
12:29 -1.5 °C -12.8 °C 34533.8 hPa South 20.9 km/h 20.9 km/h 28 % 0 mm
12:34 -1.2 °C -12.6 °C 34533.8 hPa South 15 km/h 15 km/h 28 % 0 mm
12:39 -1.2 °C -12.6 °C 34533.8 hPa SSW 23.8 km/h 23.8 km/h 28 % 0 mm
12:44 -1.3 °C -12.7 °C 34496.6 hPa WSW 15 km/h 15 km/h 28 % 0 mm
12:49 -1.2 °C -12.6 °C 34496.6 hPa SSW 20.9 km/h 20.9 km/h 28 % 0 mm
12:54 -1.4 °C -12.7 °C 34496.6 hPa South 38.8 km/h 38.8 km/h 28 % 0 mm
12:59 -1.2 °C -12.6 °C 34496.6 hPa WNW 28.2 km/h 28.2 km/h 28 % 0 mm
13:04 -1.3 °C -12.7 °C 34496.6 hPa SSW 23.8 km/h 23.8 km/h 28 % 0 mm
13:09 -1.2 °C -12.6 °C 34496.6 hPa SW 35.7 km/h 35.7 km/h 28 % 0 mm
13:14 -1 °C -12.4 °C 34496.6 hPa SW 27.2 km/h 27.2 km/h 28 % 0 mm
13:19 -1.1 °C -12.5 °C 34496.6 hPa SSW 53.6 km/h 53.6 km/h 28 % 0 mm
13:24 -1.1 °C -12.4 °C 34496.6 hPa WSW 23.8 km/h 23.8 km/h 28 % 0 mm
13:29 -0.9 °C -12.3 °C 34496.6 hPa SW 29.8 km/h 29.8 km/h 28 % 0 mm
13:34 -1 °C -12.7 °C 34496.6 hPa SW 20.9 km/h 20.9 km/h 27 % 0 mm
13:39 -0.9 °C -12.7 °C 34496.6 hPa SW 26.9 km/h 26.9 km/h 27 % 0 mm
13:44 -0.9 °C -12.6 °C 34496.6 hPa SW 15 km/h 15 km/h 27 % 0 mm
13:49 -0.9 °C -12.6 °C 34496.6 hPa WSW 35.7 km/h 35.7 km/h 27 % 0 mm
13:54 -1 °C -12.7 °C 34496.6 hPa SW 41.7 km/h 41.7 km/h 27 % 0 mm
13:59 -0.8 °C -12.6 °C 34462.7 hPa WSW 20.9 km/h 20.9 km/h 27 % 0 mm
14:04 -0.7 °C -12.4 °C 34462.7 hPa WSW 23.8 km/h 23.8 km/h 27 % 0 mm
14:09 -0.8 °C -12.9 °C 34462.7 hPa SW 32.8 km/h 32.8 km/h 26 % 0 mm
14:14 -0.7 °C -12.7 °C 34462.7 hPa WSW 20.9 km/h 20.9 km/h 26 % 0 mm
14:19 -0.6 °C -12.7 °C 34462.7 hPa SW 29.8 km/h 29.8 km/h 26 % 0 mm
14:24 -0.8 °C -13.2 °C 34462.7 hPa SW 33.6 km/h 33.6 km/h 25 % 0 mm
14:29 -0.8 °C -13.2 °C 34496.6 hPa SSW 38.8 km/h 38.8 km/h 25 % 0 mm
14:34 -0.7 °C -12.7 °C 34496.6 hPa SW 29 km/h 29 km/h 26 % 0 mm
14:39 -0.7 °C -13.1 °C 34496.6 hPa SW 26.9 km/h 26.9 km/h 25 % 0 mm
14:44 -0.6 °C -12.9 °C 34462.7 hPa South 29.8 km/h 29.8 km/h 25 % 0 mm
14:49 -0.4 °C -12.9 °C 34462.7 hPa SW 16.1 km/h 16.1 km/h 25 % 0 mm
14:54 -0.4 °C -12.8 °C 34462.7 hPa WSW 32.8 km/h 32.8 km/h 25 % 0 mm
14:59 -0.3 °C -12.7 °C 34462.7 hPa West 28.2 km/h 28.2 km/h 25 % 0 mm
15:04 -0.4 °C -13.2 °C 34462.7 hPa SW 20.9 km/h 20.9 km/h 24 % 0 mm
15:09 -0.3 °C -13.1 °C 34462.7 hPa SW 23.8 km/h 23.8 km/h 24 % 0 mm
15:14 -0.4 °C -13.2 °C 34462.7 hPa SW 41.7 km/h 41.7 km/h 24 % 0 mm
15:19 -0.3 °C -13.1 °C 34462.7 hPa SW 33.2 km/h 33.2 km/h 24 % 0 mm
15:24 -0.3 °C -13.1 °C 34462.7 hPa South 17.9 km/h 17.9 km/h 24 % 0 mm
15:29 -0.3 °C -13.1 °C 34462.7 hPa SSW 31.4 km/h 31.4 km/h 24 % 0 mm
15:34 -0.4 °C -13.2 °C 34462.7 hPa SW 26.9 km/h 26.9 km/h 24 % 0 mm
15:44 -0.3 °C -13.4 °C 34462.7 hPa WSW 23.8 km/h 23.8 km/h 23 % 0 mm
15:54 -0.5 °C -13.6 °C 34462.7 hPa SW 44.7 km/h 44.7 km/h 23 % 0 mm
15:59 -0.6 °C -13.7 °C 34462.7 hPa SW 32.8 km/h 32.8 km/h 23 % 0 mm
16:04 -0.5 °C -13.6 °C 34462.7 hPa SSW 35.7 km/h 35.7 km/h 23 % 0 mm
16:09 -0.3 °C -13.4 °C 34462.7 hPa WSW 23.8 km/h 23.8 km/h 23 % 0 mm
16:14 -0.4 °C -13.5 °C 34462.7 hPa SW 26.9 km/h 26.9 km/h 23 % 0 mm
16:19 -0.6 °C -13.7 °C 34462.7 hPa SW 35.7 km/h 35.7 km/h 23 % 0 mm
16:24 -0.4 °C -13.2 °C 34462.7 hPa ESE 17.4 km/h 17.4 km/h 24 % 0 mm
16:29 -0.6 °C -13.7 °C 34496.6 hPa WSW 23.8 km/h 23.8 km/h 23 % 0 mm
16:34 -0.4 °C -13.2 °C 34496.6 hPa WSW 20.9 km/h 20.9 km/h 24 % 0 mm
16:39 -0.6 °C -13.7 °C 34496.6 hPa SSW 32.8 km/h 32.8 km/h 23 % 0 mm
16:44 -0.7 °C -13.7 °C 34462.7 hPa SW 35.7 km/h 35.7 km/h 23 % 0 mm
16:49 -0.8 °C -13.8 °C 34462.7 hPa SSW 44.7 km/h 44.7 km/h 23 % 0 mm
16:54 -0.7 °C -13.8 °C 34462.7 hPa South 41.7 km/h 41.7 km/h 23 % 0 mm
16:59 -0.5 °C -13.2 °C 34428.8 hPa WSW 35.4 km/h 35.4 km/h 24 % 0 mm
17:04 -0.5 °C -13.2 °C 34428.8 hPa SE 20.9 km/h 20.9 km/h 24 % 0 mm
17:09 -0.4 °C -13.2 °C 34428.8 hPa SW 29.8 km/h 29.8 km/h 24 % 0 mm
17:14 -0.3 °C -13.1 °C 34462.7 hPa SW 18.3 km/h 18.3 km/h 24 % 0 mm
17:19 -0.6 °C -13.3 °C 34462.7 hPa West 32.8 km/h 32.8 km/h 24 % 0 mm
17:24 -0.5 °C -13.2 °C 34462.7 hPa SW 26.9 km/h 26.9 km/h 24 % 0 mm
17:29 -0.6 °C -13.3 °C 34462.7 hPa SW 20.9 km/h 20.9 km/h 24 % 0 mm
17:34 -0.7 °C -13.4 °C 34462.7 hPa SW 29.5 km/h 29.5 km/h 24 % 0 mm
17:39 -0.8 °C -13.2 °C 34462.7 hPa SW 29.8 km/h 29.8 km/h 25 % 0 mm
17:44 -0.7 °C -13.1 °C 34462.7 hPa SSW 23.3 km/h 23.3 km/h 25 % 0 mm
17:49 -0.8 °C -13.2 °C 34462.7 hPa WSW 20.9 km/h 20.9 km/h 25 % 0 mm
17:54 -0.9 °C -13.3 °C 34462.7 hPa SW 23.8 km/h 23.8 km/h 25 % 0 mm
17:59 -0.8 °C -13.2 °C 34428.8 hPa SSW 27.7 km/h 27.7 km/h 25 % 0 mm
18:04 -1 °C -13 °C 34428.8 hPa WSW 35.7 km/h 35.7 km/h 26 % 0 mm
18:09 -0.9 °C -12.9 °C 34428.8 hPa SW 26.9 km/h 26.9 km/h 26 % 0 mm
18:14 -1.1 °C -13.1 °C 34428.8 hPa SW 38.8 km/h 38.8 km/h 26 % 0 mm
18:19 -1 °C -13 °C 34428.8 hPa SSW 12.7 km/h 16.6 km/h 26 % 0 mm
18:24 -1.1 °C -13.1 °C 34428.8 hPa WSW 23.8 km/h 23.8 km/h 26 % 0 mm
18:29 -1.2 °C -13.2 °C 34428.8 hPa SW 23.8 km/h 23.8 km/h 26 % 0 mm
18:34 -1.3 °C -12.9 °C 34428.8 hPa WSW 29.8 km/h 29.8 km/h 27 % 0 mm
18:39 -1.4 °C -13.3 °C 34428.8 hPa SW 26.9 km/h 26.9 km/h 26 % 0 mm
18:44 -1.4 °C -13.4 °C 34462.7 hPa SW 23.8 km/h 23.8 km/h 26 % 0 mm
18:49 -1.5 °C -13.4 °C 34462.7 hPa South 20.9 km/h 20.9 km/h 26 % 0 mm
18:54 -1.5 °C -13.4 °C 34462.7 hPa WSW 19.2 km/h 19.2 km/h 26 % 0 mm
18:59 -1.6 °C -13.5 °C 34462.7 hPa SSW 9.8 km/h 11.6 km/h 26 % 0 mm
19:04 -1.6 °C -13.6 °C 34462.7 hPa SW 22 km/h 22 km/h 26 % 0 mm
19:09 -1.8 °C -13.4 °C 34462.7 hPa South 16.1 km/h 17.4 km/h 27 % 0 mm
19:14 -1.9 °C -13.4 °C 34428.8 hPa South 16.1 km/h 17.4 km/h 27 % 0 mm
19:15 -6 °C -14.5 °C 34496.6 hPa SW 15.6 km/h 15.6 km/h 37 % 0 mm
19:19 -2 °C -13.8 °C 34428.8 hPa SSW 25.1 km/h 25.1 km/h 26 % 0 mm
19:24 -2.1 °C -13.9 °C 34428.8 hPa WSW 20.9 km/h 20.9 km/h 26 % 0 mm
19:25 -6.1 °C -14.3 °C 34496.6 hPa SW 15.6 km/h 15.6 km/h 38 % 0 mm
19:29 -2.1 °C -14.3 °C 34428.8 hPa WSW 16.1 km/h 19.2 km/h 25 % 0 mm
19:34 -2.1 °C -14.6 °C 34428.8 hPa West 31.4 km/h 31.4 km/h 24 % 0 mm
19:35 -6.1 °C -14.4 °C 34496.6 hPa SW 15.6 km/h 15.6 km/h 38 % 0 mm
19:45 -2.3 °C -14.8 °C 34462.7 hPa West 18.2 km/h 31.1 km/h 24 % 0 mm
19:50 -2.3 °C -14.5 °C 34462.7 hPa SSW 20.9 km/h 20.9 km/h 25 % 0 mm
19:55 -2.4 °C -14.5 °C 34462.7 hPa SSW 20.9 km/h 20.9 km/h 25 % 0 mm
20:00 -2.4 °C -14.6 °C 34428.8 hPa SSW 20.9 km/h 20.9 km/h 25 % 0 mm
20:05 -2.5 °C -14.9 °C 34428.8 hPa SW 9 km/h 12.7 km/h 24 % 0 mm
20:10 -2.6 °C -15.1 °C 34428.8 hPa SW 9 km/h 12.7 km/h 24 % 0 mm
20:15 -2.7 °C -15.1 °C 34462.7 hPa SW 9 km/h 12.7 km/h 24 % 0 mm
20:20 -2.8 °C -14.8 °C 34462.7 hPa SW 12.9 km/h 12.9 km/h 25 % 0 mm
20:25 -2.8 °C -14.6 °C 34462.7 hPa SW 9 km/h 12.7 km/h 26 % 0 mm
20:30 -2.9 °C -14.6 °C 34462.7 hPa SW 9 km/h 12.7 km/h 26 % 0 mm
20:35 -3 °C -14.7 °C 34462.7 hPa SW 9 km/h 12.7 km/h 26 % 0 mm
20:40 -3.1 °C -14.8 °C 34462.7 hPa SW 9 km/h 12.7 km/h 26 % 0 mm
20:45 -3.1 °C -14.8 °C 34462.7 hPa SW 9 km/h 12.7 km/h 26 % 0 mm
20:50 -3.3 °C -14.9 °C 34462.7 hPa SW 9 km/h 12.7 km/h 26 % 0 mm
20:55 -3.3 °C -15 °C 34462.7 hPa SW 9 km/h 12.7 km/h 26 % 0 mm
21:00 -3.4 °C -15.1 °C 34462.7 hPa SW 12.9 km/h 12.9 km/h 26 % 0 mm
21:05 -3.5 °C -14.8 °C 34462.7 hPa SW 12.9 km/h 12.9 km/h 27 % 0 mm
21:10 -3.7 °C -14.9 °C 34462.7 hPa SW 12.9 km/h 12.9 km/h 27 % 0 mm
21:15 -3.7 °C -15.1 °C 34462.7 hPa SW 12.9 km/h 12.9 km/h 27 % 0 mm
21:20 -3.8 °C -15.1 °C 34462.7 hPa SW 12.9 km/h 12.9 km/h 27 % 0 mm
21:25 -3.9 °C -15.2 °C 34462.7 hPa SW 12.9 km/h 12.9 km/h 27 % 0 mm
21:30 -3.9 °C -14.9 °C 34462.7 hPa SW 12.9 km/h 12.9 km/h 28 % 0 mm
21:35 -4 °C -15 °C 34462.7 hPa SW 12.9 km/h 12.9 km/h 28 % 0 mm
21:40 -4.1 °C -15.1 °C 34462.7 hPa SW 12.9 km/h 12.9 km/h 28 % 0 mm
21:45 -4.2 °C -14.9 °C 34462.7 hPa SW 12.9 km/h 12.9 km/h 29 % 0 mm
21:50 -4.3 °C -14.9 °C 34462.7 hPa SW 12.9 km/h 12.9 km/h 29 % 0 mm
21:55 -4.3 °C -14.9 °C 34462.7 hPa SW 12.9 km/h 12.9 km/h 29 % 0 mm
22:00 -4.4 °C -15.1 °C 34462.7 hPa SW 9 km/h 12.7 km/h 29 % 0 mm
22:05 -4.4 °C -15.1 °C 34462.7 hPa SW 9 km/h 12.7 km/h 29 % 0 mm
22:10 -4.6 °C -14.9 °C 34462.7 hPa SW 9 km/h 12.7 km/h 30 % 0 mm
22:15 -4.6 °C -14.9 °C 34496.6 hPa SW 9 km/h 12.7 km/h 30 % 0 mm
22:20 -4.7 °C -15 °C 34496.6 hPa SW 9 km/h 12.7 km/h 30 % 0 mm
22:25 -4.7 °C -15.1 °C 34496.6 hPa SW 9 km/h 12.7 km/h 30 % 0 mm
22:30 -4.8 °C -14.8 °C 34496.6 hPa SW 9 km/h 12.7 km/h 31 % 0 mm
22:35 -4.9 °C -14.9 °C 34496.6 hPa SW 9 km/h 12.7 km/h 31 % 0 mm
22:40 -4.9 °C -14.9 °C 34496.6 hPa SW 9 km/h 12.7 km/h 31 % 0 mm
22:45 -5 °C -15.1 °C 34496.6 hPa SW 9 km/h 12.7 km/h 31 % 0 mm
22:50 -5.1 °C -14.6 °C 34496.6 hPa SW 9 km/h 12.7 km/h 33 % 0 mm
22:55 -5.1 °C -14.6 °C 34496.6 hPa SW 9 km/h 12.7 km/h 33 % 0 mm
23:00 -5.2 °C -14.7 °C 34533.8 hPa SW 9 km/h 12.7 km/h 33 % 0 mm
23:05 -5.2 °C -14.7 °C 34533.8 hPa SW 9 km/h 12.7 km/h 33 % 0 mm
23:10 -5.3 °C -14.6 °C 34533.8 hPa SW 9 km/h 12.7 km/h 34 % 0 mm
23:15 -5.3 °C -14.6 °C 34496.6 hPa SW 9 km/h 12.7 km/h 34 % 0 mm
23:20 -5.4 °C -14.6 °C 34496.6 hPa SW 9 km/h 12.7 km/h 34 % 0 mm
23:25 -5.4 °C -14.7 °C 34496.6 hPa SW 9 km/h 12.7 km/h 34 % 0 mm
23:30 -5.5 °C -14.5 °C 34533.8 hPa SW 9 km/h 12.7 km/h 35 % 0 mm
23:35 -5.6 °C -14.6 °C 34533.8 hPa SW 9 km/h 12.7 km/h 35 % 0 mm
23:40 -5.6 °C -14.6 °C 34533.8 hPa SW 9 km/h 12.7 km/h 35 % 0 mm
23:45 -5.7 °C -14.6 °C 34496.6 hPa SW 9 km/h 12.7 km/h 35 % 0 mm
23:50 -5.7 °C -14.5 °C 34496.6 hPa SW 9 km/h 12.7 km/h 36 % 0 mm
23:55 -5.8 °C -14.5 °C 34496.6 hPa SW 9 km/h 12.7 km/h 36 % 0 mm
Meteo Sesrovires
Elogis d' Weather Underground - 3.5 mb

Guio original per  Jim McMurry - jmcmurry@mwt.net Adaptat per a la plantilla per  Wim van der Kuil - Leuven-Template.eu

Trobareu la nostra informacio del temps tambe a:

Weather Underground

AWEKAS